Elkhart Lake, Wisconsin
Current Conditions -  °F | °C
As of 2:53 AM on Monday 20 Oct 2014 (Local Time) from KSBM Reporting Station
Clear Clear  
Wind Chill: 44°   Ceiling: Unl
Heat Index: 47°   Visibility: 10mi
Dew Point: 41°   Wind: 7mph
Humidity: 80%   Direction: 250°WSW
Pressure: 29.77"   Gusts: NA
Location:  43.83°N, 88.02°W
Report Text: KSBM 200753Z AUTO 25006KT 10SM CLR 08/05 A2977 RMK AO2 SLP081 T00830050
Loading
Personal Weather Stations






























Interactive Weather Map New forecast layout! Learn more

10-Day Weather Forecast

Advertisements
Track Severe Weather on mobile